Terminal Aerodrome Forecast
Issued by NWS Albany, NY

Home | Current Version | Previous Version | Text Only | Print | Product List | Glossary On
Versions: 1 2 3 4 5 6 7 8 9 10 11 12 13 14 15 16 17 18 19 20 21 22 23
474
FTUS41 KALY 271811 AAA
TAFGFL
TAF AMD
KGFL 271811Z 2718/2818 19008KT P6SM VCSH SCT050 SCT100
      TEMPO 2718/2720 18010G18KT
     FM272200 19005KT P6SM SCT050 SCT100
     FM280800 VRB03KT 4SM HZ SCT100 SCT250
     FM281300 16005KT P6SM SCT250=

USA.gov is the U.S. government's official web portal to all federal, state and local government web resources and services.